Rheden, Netherlands
Current Conditions -  °F | °C
As of 5:55 PM on Wednesday 22 Oct 2014 (Local Time) from EHDL Reporting Station
Overcast Overcast  
Wind Chill: 52°   Ceiling: 5900
Heat Index: 52°   Visibility: 6mi
Dew Point: 45°   Wind: 13mph
Humidity: 76%   Direction: 310°NW
Pressure: 30.09"   Gusts: NA
Location:  52.01°N, 6.03°E
Report Text: EHDL 221555Z AUTO 31011KT 9999 OVC059 11/07 Q1019 BLU
Loading
Personal Weather Stations






























Interactive Weather Map
Tropical Storm Tracking
New forecast layout! Learn more

10-Day Weather Forecast

Advertisements
Track Severe Weather on mobile